createdAt,value
2023-04-19T00:00:39.089Z,74.00
2023-04-19T00:03:07.703Z,74.00
2023-04-19T00:05:35.851Z,74.00
2023-04-19T00:08:03.643Z,74.00
2023-04-19T00:10:31.485Z,74.00
2023-04-19T00:12:59.301Z,74.00
2023-04-19T00:15:27.209Z,74.00
2023-04-19T00:17:56.439Z,74.00
2023-04-19T00:20:24.435Z,74.00
2023-04-19T00:22:52.119Z,74.00
2023-04-19T00:25:19.921Z,74.00
2023-04-19T00:27:47.749Z,74.00
2023-04-19T00:30:15.811Z,74.00
2023-04-19T00:32:43.568Z,74.00
2023-04-19T00:35:13.020Z,74.00
2023-04-19T00:37:40.816Z,74.00
2023-04-19T00:40:09.788Z,73.90
2023-04-19T00:42:37.508Z,74.00
2023-04-19T00:45:06.021Z,73.90
2023-04-19T00:47:33.825Z,73.90
2023-04-19T00:50:01.836Z,73.90
2023-04-19T00:52:31.294Z,73.90
2023-04-19T00:55:00.318Z,73.90
2023-04-19T00:57:28.903Z,73.90
2023-04-19T00:59:57.841Z,74.00
2023-04-19T01:02:25.935Z,74.00
2023-04-19T01:04:53.874Z,74.00
2023-04-19T01:07:21.668Z,73.90
2023-04-19T01:09:51.049Z,73.80
2023-04-19T01:12:18.897Z,73.80
2023-04-19T01:14:46.682Z,73.80
2023-04-19T01:17:14.785Z,73.80
2023-04-19T01:19:42.523Z,73.80
2023-04-19T01:22:10.863Z,73.90
2023-04-19T01:24:39.937Z,73.80
2023-04-19T01:27:07.904Z,73.90
2023-04-19T01:29:35.739Z,73.80
2023-04-19T01:32:03.474Z,73.80
2023-04-19T01:34:31.469Z,73.80
2023-04-19T01:36:59.226Z,73.70
2023-04-19T01:39:27.422Z,73.70
2023-04-19T01:41:56.566Z,73.70
2023-04-19T01:44:24.397Z,73.90
2023-04-19T01:46:52.290Z,73.80
2023-04-19T01:49:20.088Z,73.80
2023-04-19T01:51:47.807Z,73.90
2023-04-19T01:54:15.946Z,73.80
2023-04-19T01:56:44.012Z,73.80
2023-04-19T01:59:13.259Z,73.90
2023-04-19T02:01:41.153Z,74.00
2023-04-19T02:04:09.070Z,74.10
2023-04-19T02:06:36.948Z,74.20
2023-04-19T02:09:04.894Z,74.10
2023-04-19T02:11:33.727Z,74.10
2023-04-19T02:14:01.489Z,74.00
2023-04-19T02:16:30.697Z,74.10
2023-04-19T02:18:58.752Z,74.20
2023-04-19T02:21:27.473Z,74.20
2023-04-19T02:23:55.203Z,74.10
2023-04-19T02:26:24.520Z,74.00
2023-04-19T02:28:52.709Z,74.00
2023-04-19T02:31:20.569Z,73.90
2023-04-19T02:33:49.650Z,73.90
2023-04-19T02:36:17.390Z,73.80
2023-04-19T02:38:45.164Z,73.90
2023-04-19T02:41:12.999Z,73.90
2023-04-19T02:43:40.794Z,73.70
2023-04-19T02:46:08.612Z,73.80
2023-04-19T02:48:36.418Z,73.80
2023-04-19T02:51:05.850Z,73.90
2023-04-19T02:53:33.650Z,74.00
2023-04-19T02:56:01.772Z,74.00
2023-04-19T02:58:29.675Z,74.00
2023-04-19T03:00:57.512Z,74.10
2023-04-19T03:03:25.402Z,74.10
2023-04-19T03:05:53.287Z,74.10
2023-04-19T03:08:22.426Z,74.10
2023-04-19T03:10:50.353Z,74.10
2023-04-19T03:13:18.125Z,74.00
2023-04-19T03:15:45.881Z,74.00
2023-04-19T03:18:13.828Z,74.00
2023-04-19T03:20:41.643Z,74.10
2023-04-19T03:23:09.646Z,74.00
2023-04-19T03:25:38.802Z,74.00
2023-04-19T03:28:06.814Z,74.00
2023-04-19T03:30:34.972Z,74.10
2023-04-19T03:33:02.858Z,74.10
2023-04-19T03:35:32.483Z,74.10
2023-04-19T03:38:00.358Z,74.10
2023-04-19T03:40:28.176Z,74.20
2023-04-19T03:42:57.322Z,74.20
2023-04-19T03:45:25.472Z,74.20
2023-04-19T03:47:53.206Z,74.10
2023-04-19T03:50:20.998Z,74.20
2023-04-19T03:52:48.860Z,74.20
2023-04-19T03:55:16.674Z,74.20
2023-04-19T03:57:44.548Z,74.30
2023-04-19T04:00:14.901Z,74.30
2023-04-19T04:02:42.921Z,74.30
2023-04-19T04:05:11.036Z,74.30
2023-04-19T04:07:38.927Z,74.20
2023-04-19T04:10:08.002Z,74.10
2023-04-19T04:12:35.975Z,74.10
2023-04-19T04:15:03.916Z,74.00
2023-04-19T04:17:33.108Z,73.90
2023-04-19T04:20:01.325Z,73.90
2023-04-19T04:22:29.037Z,73.80
2023-04-19T04:24:58.165Z,73.80
2023-04-19T04:27:25.951Z,73.80
2023-04-19T04:29:54.718Z,73.80
2023-04-19T04:32:23.691Z,73.80
2023-04-19T04:34:52.921Z,73.90
2023-04-19T04:37:21.143Z,73.90
2023-04-19T04:39:48.976Z,73.80
2023-04-19T04:42:17.491Z,73.80
2023-04-19T04:44:47.255Z,73.90
2023-04-19T04:47:15.258Z,73.90
2023-04-19T04:49:42.980Z,73.90
2023-04-19T04:52:12.309Z,73.80
2023-04-19T04:54:40.372Z,74.00
2023-04-19T04:57:08.152Z,74.00
2023-04-19T04:59:35.967Z,74.00
2023-04-19T05:02:03.743Z,74.10
2023-04-19T05:04:31.602Z,74.10
2023-04-19T05:06:59.712Z,74.10
2023-04-19T05:09:28.836Z,74.00
2023-04-19T05:11:56.713Z,74.00
2023-04-19T05:14:27.416Z,74.00
2023-04-19T05:16:55.162Z,73.80
2023-04-19T05:19:22.914Z,73.70
2023-04-19T05:21:50.746Z,73.70
2023-04-19T05:24:18.656Z,73.70
2023-04-19T05:26:48.000Z,73.70
2023-04-19T05:29:15.780Z,73.60
2023-04-19T05:31:43.748Z,73.60
2023-04-19T05:34:11.662Z,73.50
2023-04-19T05:36:39.427Z,74.30
2023-04-19T05:39:07.136Z,73.60
2023-04-19T05:41:35.109Z,73.50
2023-04-19T05:44:04.204Z,73.40
2023-04-19T05:46:32.104Z,73.40
2023-04-19T05:49:00.024Z,73.30
2023-04-19T05:51:28.152Z,73.40
2023-04-19T05:53:57.437Z,73.40
2023-04-19T05:56:25.535Z,73.30
2023-04-19T05:58:55.696Z,73.30
2023-04-19T06:01:25.313Z,73.30
2023-04-19T06:03:53.724Z,73.40
2023-04-19T06:06:23.648Z,73.50
2023-04-19T06:08:54.437Z,73.50
2023-04-19T06:11:26.893Z,73.50
2023-04-19T06:13:56.888Z,73.40
2023-04-19T06:16:26.950Z,73.30
2023-04-19T06:18:54.733Z,73.10
2023-04-19T06:21:22.524Z,73.10
2023-04-19T06:23:50.368Z,73.10
2023-04-19T06:26:18.153Z,73.10
2023-04-19T06:28:45.931Z,73.10
2023-04-19T06:31:13.718Z,73.00
2023-04-19T06:33:42.823Z,73.00
2023-04-19T06:36:11.577Z,72.90
2023-04-19T06:38:39.861Z,73.00
2023-04-19T06:41:07.593Z,72.90
2023-04-19T06:43:35.706Z,73.00
2023-04-19T06:46:04.601Z,72.90
2023-04-19T06:48:32.437Z,72.90
2023-04-19T06:51:01.686Z,72.90
2023-04-19T06:53:29.543Z,72.80
2023-04-19T06:55:59.922Z,72.70
2023-04-19T06:58:27.807Z,73.60
2023-04-19T07:00:55.855Z,72.90
2023-04-19T07:03:24.030Z,72.80
2023-04-19T07:05:52.678Z,72.90
2023-04-19T07:08:21.967Z,72.90
2023-04-19T07:10:49.652Z,72.80
2023-04-19T07:13:17.509Z,72.90
2023-04-19T07:15:45.580Z,73.50
2023-04-19T07:18:16.048Z,72.60
2023-04-19T07:20:48.458Z,72.60
2023-04-19T07:23:17.332Z,72.40
2023-04-19T07:25:46.422Z,72.30
2023-04-19T07:28:14.112Z,72.40
2023-04-19T07:30:41.875Z,72.30
2023-04-19T07:33:09.579Z,72.30
2023-04-19T07:35:40.242Z,72.40
2023-04-19T07:38:08.011Z,73.20
2023-04-19T07:40:35.687Z,72.50
2023-04-19T07:43:04.793Z,72.70
2023-04-19T07:45:32.548Z,72.60
2023-04-19T07:48:00.391Z,72.70
2023-04-19T07:50:28.701Z,72.90
2023-04-19T07:52:56.886Z,72.90
2023-04-19T07:55:24.795Z,72.90
2023-04-19T07:57:52.619Z,71.80
2023-04-19T08:00:22.421Z,71.80
2023-04-19T08:02:51.098Z,71.60
2023-04-19T08:05:20.045Z,71.60
2023-04-19T08:07:48.015Z,71.60
2023-04-19T08:10:22.185Z,71.70
2023-04-19T08:15:52.198Z,71.50
2023-04-19T08:18:14.216Z,71.50
2023-04-19T08:20:42.566Z,71.40
2023-04-19T08:23:22.392Z,71.30
2023-04-19T08:25:53.656Z,71.30
2023-04-19T08:28:21.412Z,71.50
2023-04-19T08:30:50.632Z,71.50
2023-04-19T08:33:18.953Z,71.40
2023-04-19T08:35:46.696Z,71.30
2023-04-19T08:38:14.433Z,72.10
2023-04-19T08:40:47.513Z,71.40
2023-04-19T08:43:16.806Z,71.30
2023-04-19T08:45:47.381Z,71.30
2023-04-19T08:48:17.166Z,71.20
2023-04-19T08:51:01.186Z,71.00
2023-04-19T08:53:34.296Z,71.00
2023-04-19T09:01:06.360Z,71.10
2023-04-19T09:03:44.314Z,71.00
2023-04-19T09:06:23.732Z,70.80
2023-04-19T09:08:52.483Z,70.80
2023-04-19T09:11:21.452Z,71.00
2023-04-19T09:13:50.353Z,71.00
2023-04-19T09:16:26.012Z,70.70
2023-04-19T09:19:08.019Z,70.70
2023-04-19T09:21:43.711Z,70.60
2023-04-19T09:24:11.694Z,70.70
2023-04-19T09:26:58.256Z,70.60
2023-04-19T09:29:26.893Z,70.60
2023-04-19T09:31:59.310Z,70.20
2023-04-19T09:34:32.728Z,70.90
2023-04-19T09:37:28.057Z,70.00
2023-04-19T09:40:04.587Z,69.80
2023-04-19T09:48:03.021Z,69.70
2023-04-19T09:50:33.881Z,69.30
2023-04-19T09:53:09.228Z,69.30
2023-04-19T09:55:52.358Z,69.40
2023-04-19T09:58:34.339Z,69.90
2023-04-19T10:01:15.470Z,68.70
2023-04-19T10:03:55.566Z,68.60
2023-04-19T10:08:56.894Z,68.50
2023-04-19T10:11:28.099Z,68.10
2023-04-19T10:14:00.912Z,67.80
2023-04-19T10:16:29.062Z,67.50
2023-04-19T10:18:58.186Z,67.40
2023-04-19T10:21:28.652Z,67.00
2023-04-19T10:23:57.446Z,66.90
2023-04-19T10:26:25.573Z,66.80
2023-04-19T10:28:55.454Z,66.80
2023-04-19T10:31:23.922Z,66.50
2023-04-19T10:33:52.404Z,66.40
2023-04-19T10:36:21.635Z,66.20
2023-04-19T10:38:53.580Z,66.20
2023-04-19T10:41:21.886Z,66.00
2023-04-19T10:44:10.313Z,65.90
2023-04-19T10:46:40.091Z,66.00
2023-04-19T10:49:09.775Z,65.80
2023-04-19T10:51:39.408Z,66.00
2023-04-19T10:54:09.640Z,65.50
2023-04-19T10:57:02.515Z,65.70
2023-04-19T10:59:31.658Z,65.60
2023-04-19T11:02:01.101Z,65.60
2023-04-19T11:05:14.318Z,64.90
2023-04-19T11:07:43.626Z,64.90
2023-04-19T11:10:13.026Z,64.90
2023-04-19T11:12:45.806Z,64.30
2023-04-19T11:15:14.123Z,64.50
2023-04-19T11:17:42.540Z,64.30
2023-04-19T11:20:11.767Z,64.10
2023-04-19T11:22:40.772Z,63.90
2023-04-19T11:25:10.332Z,63.60
2023-04-19T11:27:39.876Z,63.60
2023-04-19T11:30:10.017Z,63.40
2023-04-19T11:32:39.041Z,63.40
2023-04-19T11:35:09.606Z,63.40
2023-04-19T11:37:39.388Z,63.20
2023-04-19T11:40:08.594Z,63.30
2023-04-19T11:42:37.104Z,63.30
2023-04-19T11:45:18.705Z,63.20
2023-04-19T11:47:54.548Z,62.90
2023-04-19T11:50:33.512Z,62.40
2023-04-19T11:53:10.214Z,62.20
2023-04-19T11:55:38.218Z,61.90
2023-04-19T11:58:09.528Z,62.00
2023-04-19T12:00:38.658Z,61.60
2023-04-19T12:03:06.899Z,61.40
2023-04-19T12:05:35.066Z,61.50
2023-04-19T12:08:04.074Z,61.50
2023-04-19T12:10:32.581Z,61.50
2023-04-19T12:13:00.973Z,61.40
2023-04-19T12:15:43.692Z,61.30
2023-04-19T12:18:11.631Z,61.30
2023-04-19T12:20:44.625Z,61.00
2023-04-19T12:23:13.963Z,61.40
2023-04-19T12:25:41.876Z,61.30
2023-04-19T12:28:09.913Z,61.10
2023-04-19T12:30:38.043Z,61.00
2023-04-19T12:33:07.679Z,60.90
2023-04-19T12:35:36.146Z,60.80
2023-04-19T12:38:06.294Z,60.80
2023-04-19T12:40:35.968Z,60.50
2023-04-19T12:43:03.733Z,60.70
2023-04-19T12:45:34.920Z,60.70
2023-04-19T12:48:05.725Z,60.70
2023-04-19T12:50:34.990Z,60.90
2023-04-19T12:53:02.914Z,60.70
2023-04-19T12:55:30.832Z,60.30
2023-04-19T12:58:01.232Z,60.50
2023-04-19T13:00:31.581Z,60.60
2023-04-19T13:02:59.705Z,60.50
2023-04-19T13:05:27.557Z,60.50
2023-04-19T13:07:56.739Z,60.60
2023-04-19T13:10:24.588Z,60.70
2023-04-19T13:12:52.381Z,60.60
2023-04-19T13:15:20.272Z,60.50
2023-04-19T13:17:48.021Z,60.60
2023-04-19T13:20:15.844Z,60.60
2023-04-19T13:22:43.600Z,60.60
2023-04-19T13:25:13.223Z,60.50
2023-04-19T13:27:40.949Z,60.00
2023-04-19T13:30:10.773Z,59.90
2023-04-19T13:32:38.573Z,60.00
2023-04-19T13:35:07.207Z,60.20
2023-04-19T13:37:34.950Z,59.80
2023-04-19T13:40:17.456Z,59.90
2023-04-19T13:42:48.176Z,60.00
2023-04-19T13:45:15.913Z,59.90
2023-04-19T13:47:43.774Z,59.90
2023-04-19T13:50:12.854Z,59.90
2023-04-19T13:52:40.761Z,59.90
2023-04-19T13:55:09.141Z,59.60
2023-04-19T13:57:37.254Z,59.70
2023-04-19T14:00:08.253Z,59.70
2023-04-19T14:02:36.470Z,59.70
2023-04-19T14:05:04.609Z,59.60
2023-04-19T14:07:32.651Z,59.40
2023-04-19T14:10:00.548Z,59.30
2023-04-19T14:12:31.015Z,60.10
2023-04-19T14:14:58.892Z,59.40
2023-04-19T14:17:28.068Z,59.80
2023-04-19T14:19:56.629Z,59.10
2023-04-19T14:22:28.572Z,59.00
2023-04-19T14:24:56.360Z,59.00
2023-04-19T14:27:26.442Z,58.80
2023-04-19T14:29:54.432Z,58.90
2023-04-19T14:32:26.393Z,58.90
2023-04-19T14:34:56.583Z,58.70
2023-04-19T14:37:25.476Z,58.70
2023-04-19T14:39:53.637Z,58.50
2023-04-19T14:42:22.823Z,58.80
2023-04-19T14:44:52.621Z,58.70
2023-04-19T14:47:21.463Z,58.90
2023-04-19T14:49:49.583Z,58.80
2023-04-19T14:52:18.816Z,59.00
2023-04-19T14:54:46.881Z,58.70
2023-04-19T14:57:15.082Z,58.80
2023-04-19T14:59:42.763Z,58.60
2023-04-19T15:02:13.211Z,58.40
2023-04-19T15:04:42.170Z,58.70
2023-04-19T15:07:10.490Z,58.50
2023-04-19T15:09:40.271Z,58.70
2023-04-19T15:12:08.088Z,58.80
2023-04-19T15:14:36.052Z,58.80
2023-04-19T15:17:03.936Z,58.90
2023-04-19T15:19:31.947Z,59.10
2023-04-19T15:21:59.676Z,58.80
2023-04-19T15:24:27.418Z,58.70
2023-04-19T15:26:56.582Z,58.50
2023-04-19T15:29:24.336Z,58.50
2023-04-19T15:31:52.356Z,58.40
2023-04-19T15:34:20.278Z,58.30
2023-04-19T15:36:47.979Z,58.30
2023-04-19T15:39:16.088Z,58.40
2023-04-19T15:41:43.983Z,58.10
2023-04-19T15:44:13.065Z,58.30
2023-04-19T15:46:40.967Z,58.10
2023-04-19T15:49:08.738Z,58.10
2023-04-19T15:51:36.601Z,57.90
2023-04-19T15:54:05.942Z,57.80
2023-04-19T15:56:33.687Z,57.80
2023-04-19T15:59:01.926Z,57.60
2023-04-19T16:01:31.307Z,57.50
2023-04-19T16:03:59.311Z,57.60
2023-04-19T16:06:30.459Z,57.50
2023-04-19T16:08:58.243Z,57.40
2023-04-19T16:11:26.162Z,57.40
2023-04-19T16:13:53.973Z,57.40
2023-04-19T16:16:22.806Z,57.20
2023-04-19T16:18:52.078Z,57.30
2023-04-19T16:21:20.523Z,57.20
2023-04-19T16:23:48.641Z,57.20
2023-04-19T16:26:17.100Z,57.30
2023-04-19T16:28:45.090Z,57.30
2023-04-19T16:31:13.098Z,57.40
2023-04-19T16:33:41.190Z,57.40
2023-04-19T16:36:10.806Z,57.40
2023-04-19T16:38:38.751Z,57.40
2023-04-19T16:41:09.139Z,57.40
2023-04-19T16:46:19.255Z,57.30
2023-04-19T16:48:47.533Z,57.30
2023-04-19T16:51:19.370Z,57.30
2023-04-19T16:53:47.397Z,57.30
2023-04-19T16:56:17.658Z,57.30
2023-04-19T16:58:46.099Z,57.40
2023-04-19T17:01:14.632Z,57.30
2023-04-19T17:03:44.178Z,57.20
2023-04-19T17:06:14.255Z,57.40
2023-04-19T17:08:43.454Z,57.40
2023-04-19T17:11:12.851Z,57.40
2023-04-19T17:13:42.004Z,57.40
2023-04-19T17:16:09.826Z,57.50
2023-04-19T17:18:37.936Z,57.60
2023-04-19T17:21:06.734Z,57.70
2023-04-19T17:23:34.610Z,57.70
2023-04-19T17:26:06.833Z,57.60
2023-04-19T17:28:37.191Z,57.60
2023-04-19T17:31:06.166Z,57.70
2023-04-19T17:33:35.212Z,57.70
2023-04-19T17:36:03.706Z,57.60
2023-04-19T17:38:31.565Z,57.70
2023-04-19T17:41:02.675Z,57.70
2023-04-19T17:43:32.580Z,57.70
2023-04-19T17:46:01.940Z,57.70
2023-04-19T17:48:29.908Z,57.80
2023-04-19T17:51:00.028Z,58.00
2023-04-19T17:53:28.034Z,58.00
2023-04-19T17:55:55.983Z,57.90
2023-04-19T17:58:24.079Z,57.90
2023-04-19T18:00:53.600Z,57.90
2023-04-19T18:03:21.547Z,57.90
2023-04-19T18:05:49.491Z,58.10
2023-04-19T18:08:18.054Z,58.00
2023-04-19T18:10:46.075Z,58.00
2023-04-19T18:13:14.378Z,57.90
2023-04-19T18:15:42.610Z,57.80
2023-04-19T18:18:12.915Z,57.90
2023-04-19T18:20:41.129Z,57.90
2023-04-19T18:23:10.011Z,58.00
2023-04-19T18:25:39.816Z,58.00
2023-04-19T18:28:09.212Z,58.00
2023-04-19T18:30:40.975Z,58.00
2023-04-19T18:33:08.845Z,58.00
2023-04-19T18:35:38.537Z,58.00
2023-04-19T18:38:06.674Z,58.10
2023-04-19T18:40:35.954Z,58.20
2023-04-19T18:43:03.825Z,58.30
2023-04-19T18:45:33.293Z,58.20
2023-04-19T18:48:01.653Z,58.20
2023-04-19T18:50:32.459Z,58.10
2023-04-19T18:53:05.092Z,58.30
2023-04-19T18:55:34.521Z,58.20
2023-04-19T18:58:02.841Z,58.20
2023-04-19T19:00:33.106Z,58.30
2023-04-19T19:03:02.905Z,58.30
2023-04-19T19:05:33.514Z,58.30
2023-04-19T19:08:07.963Z,58.30
2023-04-19T19:11:13.036Z,58.30
2023-04-19T19:13:24.967Z,58.30
2023-04-19T19:15:53.089Z,58.30
2023-04-19T19:18:21.564Z,58.30
2023-04-19T19:20:51.392Z,58.30
2023-04-19T19:23:34.579Z,58.30
2023-04-19T19:26:03.936Z,58.30
2023-04-19T19:28:31.708Z,58.30
2023-04-19T19:30:59.478Z,58.30
2023-04-19T19:33:28.812Z,58.40
2023-04-19T19:35:56.812Z,58.50
2023-04-19T19:38:25.897Z,58.40
2023-04-19T19:41:30.921Z,58.40
2023-04-19T19:43:41.692Z,58.40
2023-04-19T19:46:10.740Z,58.30
2023-04-19T19:48:42.508Z,58.30
2023-04-19T19:51:31.477Z,58.30
2023-04-19T19:53:59.972Z,58.40
2023-04-19T19:56:28.244Z,58.40
2023-04-19T19:58:57.459Z,59.20
2023-04-19T20:01:26.943Z,59.30
2023-04-19T20:03:56.293Z,59.40
2023-04-19T20:07:21.515Z,59.50
2023-04-19T20:09:14.314Z,59.50
2023-04-19T20:11:42.024Z,59.60
2023-04-19T20:14:09.824Z,59.60
2023-04-19T20:16:37.617Z,59.70
2023-04-19T20:19:09.534Z,59.70
2023-04-19T20:21:37.923Z,59.80
2023-04-19T20:24:06.675Z,59.70
2023-04-19T20:26:36.049Z,59.70
2023-04-19T20:29:03.821Z,59.70
2023-04-19T20:31:31.645Z,59.70
2023-04-19T20:33:59.499Z,59.70
2023-04-19T20:36:27.543Z,59.80
2023-04-19T20:38:56.924Z,59.80
2023-04-19T20:41:24.732Z,59.80
2023-04-19T20:43:56.922Z,59.80
2023-04-19T20:46:25.986Z,59.90
2023-04-19T20:48:53.866Z,59.90
2023-04-19T20:51:21.570Z,59.90
2023-04-19T20:53:49.301Z,60.70
2023-04-19T20:56:17.072Z,59.90
2023-04-19T20:58:45.255Z,59.80
2023-04-19T21:01:17.137Z,59.90
2023-04-19T21:03:45.824Z,59.90
2023-04-19T21:06:13.873Z,60.10
2023-04-19T21:08:41.670Z,60.10
2023-04-19T21:11:09.396Z,60.20
2023-04-19T21:13:37.166Z,60.30
2023-04-19T21:16:05.308Z,60.40
2023-04-19T21:18:34.698Z,60.40
2023-04-19T21:21:02.426Z,60.40
2023-04-19T21:23:30.194Z,60.50
2023-04-19T21:25:58.084Z,60.40
2023-04-19T21:28:26.000Z,60.40
2023-04-19T21:30:53.695Z,60.40
2023-04-19T21:33:21.414Z,60.40
2023-04-19T21:35:50.495Z,60.40
2023-04-19T21:38:19.279Z,60.40
2023-04-19T21:40:47.281Z,60.30
2023-04-19T21:43:14.971Z,60.30
2023-04-19T21:45:42.778Z,60.30
2023-04-19T21:48:10.667Z,59.40
2023-04-19T21:50:38.420Z,59.40
2023-04-19T21:53:07.570Z,59.30
2023-04-19T21:55:35.348Z,59.30
2023-04-19T21:58:03.266Z,59.20
2023-04-19T22:00:31.344Z,59.10
2023-04-19T22:02:59.340Z,59.20
2023-04-19T22:05:27.190Z,59.20
2023-04-19T22:07:57.537Z,59.20
2023-04-19T22:10:27.310Z,59.20
2023-04-19T22:12:58.413Z,59.20
2023-04-19T22:15:26.794Z,59.30
2023-04-19T22:17:54.823Z,59.20
2023-04-19T22:20:23.677Z,59.10
2023-04-19T22:22:51.652Z,59.10
2023-04-19T22:25:20.879Z,59.00
2023-04-19T22:27:52.244Z,58.90
2023-04-19T22:30:22.499Z,58.60
2023-04-19T22:32:50.229Z,58.50
2023-04-19T22:35:18.729Z,59.80
2023-04-19T22:37:47.787Z,59.30
2023-04-19T22:40:15.651Z,59.50
2023-04-19T22:42:43.402Z,59.80
2023-04-19T22:45:12.926Z,60.20
2023-04-19T22:47:40.845Z,60.50
2023-04-19T22:50:09.770Z,60.60
2023-04-19T22:52:37.547Z,60.60
2023-04-19T22:55:06.854Z,61.00
2023-04-19T22:57:34.599Z,60.90
2023-04-19T23:00:02.589Z,60.70
2023-04-19T23:02:31.762Z,60.80
2023-04-19T23:05:00.546Z,60.70
2023-04-19T23:07:28.753Z,60.80
2023-04-19T23:09:57.145Z,60.70
2023-04-19T23:12:24.917Z,60.50
2023-04-19T23:14:52.796Z,60.60
2023-04-19T23:17:21.134Z,60.60
2023-04-19T23:19:50.261Z,60.60
2023-04-19T23:22:18.015Z,60.50
2023-04-19T23:24:45.812Z,60.20
2023-04-19T23:27:13.884Z,60.10
2023-04-19T23:29:41.736Z,59.90
2023-04-19T23:32:09.563Z,60.00
2023-04-19T23:34:37.396Z,60.60
2023-04-19T23:37:08.526Z,60.60
2023-04-19T23:39:36.396Z,60.90
2023-04-19T23:42:04.387Z,61.00
2023-04-19T23:44:32.198Z,61.10
2023-04-19T23:47:00.032Z,61.30
2023-04-19T23:49:27.897Z,61.50
2023-04-19T23:51:55.693Z,61.60
2023-04-19T23:56:54.992Z,61.50
2023-04-19T23:59:26.646Z,61.50
